Time;durP1;ratioP1;P1;durP2;ratioP2;P2;SDS_P1;SDS_P2;PMS_P1;PMS_P2;Temp;Humidity;BMP_temperature;BMP_pressure;BME280_temperature;BME280_humidity;BME280_pressure;Samples;Min_cycle;Max_cycle;Signal;HPM_P1;HPM_P2
2024/03/12 00:01:44;;;;;;;1999.90;999.90;;;10.50;99.90;;;;;;5034919;28;20061;-74
2024/03/12 00:04:10;;;;;;;1999.90;999.90;;;10.50;99.90;;;;;;5034954;28;20060;-81
2024/03/12 00:06:37;;;;;;;1999.90;999.90;;;10.50;99.90;;;;;;5035085;28;20439;-80
2024/03/12 00:09:06;;;;;;;1999.90;999.90;;;10.40;99.90;;;;;;5034652;28;20440;-73
2024/03/12 00:11:33;;;;;;;1999.90;999.90;;;10.40;99.90;;;;;;5035150;28;20021;-80
2024/03/12 00:13:59;;;;;;;1999.90;999.90;;;10.40;99.90;;;;;;5032997;28;20025;-81
2024/03/12 00:16:25;;;;;;;1999.90;999.90;;;10.40;99.90;;;;;;5035360;28;20026;-81
2024/03/12 00:18:55;;;;;;;1999.90;999.90;;;10.40;99.90;;;;;;5014414;28;20144;-81
2024/03/12 00:21:21;;;;;;;1999.90;999.90;;;10.40;99.90;;;;;;5015051;28;20104;-73
2024/03/12 00:23:48;;;;;;;1999.90;999.90;;;10.40;99.90;;;;;;5015009;28;20065;-73
2024/03/12 00:26:17;;;;;;;1999.90;999.90;;;10.30;99.90;;;;;;5014561;28;20049;-80
2024/03/12 00:28:44;;;;;;;1999.90;999.90;;;10.40;99.90;;;;;;5015001;28;20068;-81
2024/03/12 00:31:09;;;;;;;1999.90;999.90;;;10.40;99.90;;;;;;5032026;28;20108;-80
2024/03/12 00:33:35;;;;;;;1999.90;999.90;;;10.40;99.90;;;;;;5034520;28;20463;-80
2024/03/12 00:36:01;;;;;;;1999.90;999.90;;;10.40;99.90;;;;;;5034239;28;20519;-73
2024/03/12 00:38:28;;;;;;;1999.90;999.90;;;10.40;99.90;;;;;;5034539;28;20045;-73
2024/03/12 00:40:55;;;;;;;1999.90;999.90;;;10.40;99.90;;;;;;5028560;28;20053;-81
2024/03/12 00:43:23;;;;;;;1999.90;999.90;;;10.40;99.90;;;;;;5014785;28;20025;-73
2024/03/12 00:45:48;;;;;;;1999.90;999.90;;;10.40;99.90;;;;;;5014617;28;20038;-80
2024/03/12 00:48:14;;;;;;;1999.90;999.90;;;10.50;99.90;;;;;;5014303;28;20092;-73
2024/03/12 00:50:42;;;;;;;1999.90;999.90;;;10.50;99.90;;;;;;5026385;28;20037;-73
2024/03/12 00:53:08;;;;;;;1999.90;999.90;;;10.50;99.90;;;;;;5034401;28;20021;-73
2024/03/12 00:55:36;;;;;;;1999.90;999.90;;;10.50;99.90;;;;;;5033187;28;20104;-79
2024/03/12 00:58:01;;;;;;;1999.90;999.90;;;10.50;99.90;;;;;;5034347;28;20029;-73
2024/03/12 01:00:33;;;;;;;1999.90;999.90;;;10.50;99.90;;;;;;5033699;28;20037;-80
2024/03/12 01:03:00;;;;;;;1999.90;999.90;;;10.50;99.90;;;;;;5033979;28;20049;-73
2024/03/12 01:05:30;;;;;;;1999.90;999.90;;;10.50;99.90;;;;;;5034027;28;20500;-81
2024/03/12 01:08:01;;;;;;;1999.90;999.90;;;10.40;99.90;;;;;;5033766;28;20060;-80
2024/03/12 01:10:28;;;;;;;1999.90;999.90;;;10.50;99.90;;;;;;5033724;28;20464;-73
2024/03/12 01:12:55;;;;;;;1999.90;999.90;;;10.40;99.90;;;;;;5034214;28;20052;-73
2024/03/12 01:15:26;;;;;;;1999.90;999.90;;;10.50;99.90;;;;;;5033339;28;20030;-73
2024/03/12 01:17:56;;;;;;;1999.90;999.90;;;10.50;99.90;;;;;;5021974;28;20060;-80
2024/03/12 01:20:26;;;;;;;1999.90;999.90;;;10.50;99.90;;;;;;5012809;28;20111;-81
2024/03/12 01:22:54;;;;;;;1999.90;999.90;;;10.50;99.90;;;;;;5014089;28;20500;-81
2024/03/12 01:25:21;;;;;;;1999.90;999.90;;;10.50;99.90;;;;;;5014122;28;20025;-81
2024/03/12 01:27:47;;;;;;;1999.90;999.90;;;10.50;99.90;;;;;;5028904;28;20123;-73
2024/03/12 01:30:16;;;;;;;1999.90;999.90;;;10.60;99.90;;;;;;5019981;28;20032;-73
2024/03/12 01:32:46;;;;;;;1999.90;999.90;;;10.50;99.90;;;;;;5033730;28;20072;-81
2024/03/12 01:35:15;;;;;;;1999.90;999.90;;;10.50;99.90;;;;;;5033420;28;20029;-81
2024/03/12 01:37:42;;;;;;;1999.90;999.90;;;10.50;99.90;;;;;;5033643;28;20035;-81
2024/03/12 01:40:29;;;;;;;1999.90;999.90;;;10.50;99.90;;;;;;5032969;28;20511;-73
2024/03/12 01:43:06;;;;;;;1999.90;999.90;;;10.40;99.90;;;;;;4994310;28;20022;-73
2024/03/12 01:45:35;;;;;;;1999.90;999.90;;;10.40;99.90;;;;;;5002129;28;20026;-81
2024/03/12 01:48:08;;;;;;;1999.90;999.90;;;10.40;99.90;;;;;;5013237;28;20519;-80
2024/03/12 01:50:35;;;;;;;1999.90;999.90;;;10.40;99.90;;;;;;5013558;28;20040;-81
2024/03/12 01:53:06;;;;;;;1999.90;999.90;;;10.40;99.90;;;;;;5012052;28;20042;-81
2024/03/12 01:55:40;;;;;;;1999.90;999.90;;;10.30;99.90;;;;;;5020340;28;20017;-73
2024/03/12 01:58:06;;;;;;;1999.90;999.90;;;10.30;99.90;;;;;;5032874;28;20036;-81
2024/03/12 02:00:32;;;;;;;1999.90;999.90;;;10.30;99.90;;;;;;5032864;28;20041;-80
2024/03/12 02:02:59;;;;;;;1999.90;999.90;;;10.20;99.90;;;;;;5033022;28;20029;-80
2024/03/12 02:05:24;;;;;;;1999.90;999.90;;;10.20;99.90;;;;;;5032722;28;20100;-73
2024/03/12 02:07:53;;;;;;;1999.90;999.90;;;10.10;99.90;;;;;;5032757;28;20506;-73
2024/03/12 02:10:19;;;;;;;1999.90;999.90;;;10.10;99.90;;;;;;5032418;28;20029;-73
2024/03/12 02:12:45;;;;;;;1999.90;999.90;;;10.10;99.90;;;;;;5033042;28;20481;-81
2024/03/12 02:15:13;;;;;;;1999.90;999.90;;;10.00;99.90;;;;;;5031249;28;20401;-80
2024/03/12 02:17:39;;;;;;;1999.90;999.90;;;10.00;99.90;;;;;;5022894;28;20024;-80
2024/03/12 02:20:09;;;;;;;1999.90;999.90;;;10.00;99.90;;;;;;5012594;28;20026;-73
2024/03/12 02:22:35;;;;;;;1999.90;999.90;;;10.00;99.90;;;;;;5013032;28;20113;-73
2024/03/12 02:25:03;;;;;;;1999.90;999.90;;;9.90;99.90;;;;;;5012923;28;20562;-80
2024/03/12 02:27:29;;;;;;;1999.90;999.90;;;9.80;99.90;;;;;;5013350;28;20022;-81
2024/03/12 02:29:55;;;;;;;1999.90;999.90;;;9.80;99.90;;;;;;5011588;28;20033;-80
2024/03/12 02:32:22;;;;;;;1999.90;999.90;;;9.80;99.90;;;;;;5032476;28;20029;-73
2024/03/12 02:34:49;;;;;;;1999.90;999.90;;;9.80;99.90;;;;;;5017208;28;20022;-73
2024/03/12 02:37:14;;;;;;;1999.90;999.90;;;9.90;99.90;;;;;;5012352;28;20021;-80
2024/03/12 02:39:40;;;;;;;1999.90;999.90;;;9.90;99.90;;;;;;5011452;28;20533;-80
2024/03/12 02:42:08;;;;;;;1999.90;999.90;;;9.90;99.90;;;;;;5020181;28;20018;-81
2024/03/12 02:44:36;;;;;;;1999.90;999.90;;;9.90;99.90;;;;;;5018047;28;20394;-73
2024/03/12 02:47:03;;;;;;;1999.90;999.90;;;9.90;99.90;;;;;;5017988;28;20041;-73
2024/03/12 02:49:29;;;;;;;1999.90;999.90;;;10.00;99.90;;;;;;5019073;28;20033;-81
2024/03/12 02:51:54;;;;;;;1999.90;999.90;;;10.00;99.90;;;;;;5019327;28;20488;-80
2024/03/12 02:54:20;;;;;;;1999.90;999.90;;;10.00;99.90;;;;;;5019315;28;20381;-80
2024/03/12 02:56:47;;;;;;;1999.90;999.90;;;10.00;99.90;;;;;;5019279;28;20091;-81
2024/03/12 02:59:13;;;;;;;1999.90;999.90;;;10.00;99.90;;;;;;5019486;28;20022;-81
2024/03/12 03:01:39;;;;;;;1999.90;999.90;;;10.10;99.90;;;;;;5018702;28;20108;-81
2024/03/12 03:04:05;;;;;;;1999.90;999.90;;;10.10;99.90;;;;;;5018961;28;20091;-81
2024/03/12 03:06:31;;;;;;;1999.90;999.90;;;10.10;99.90;;;;;;5018409;28;20038;-80
2024/03/12 03:08:58;;;;;;;1999.90;999.90;;;10.20;99.90;;;;;;5019132;28;20461;-81
2024/03/12 03:11:24;;;;;;;1999.90;999.90;;;10.20;99.90;;;;;;5019145;28;20026;-73
2024/03/12 03:13:50;;;;;;;1999.90;999.90;;;10.30;99.90;;;;;;5018944;28;20029;-80
2024/03/12 03:16:16;;;;;;;1999.90;999.90;;;10.30;99.90;;;;;;5018772;28;20037;-80
2024/03/12 03:18:42;;;;;;;1999.90;999.90;;;10.30;99.90;;;;;;5018189;28;20034;-81
2024/03/12 03:21:09;;;;;;;1999.90;999.90;;;10.30;99.90;;;;;;5026302;28;20515;-73
2024/03/12 03:23:41;;;;;;;1999.90;999.90;;;10.40;99.90;;;;;;5021294;28;20504;-80
2024/03/12 03:26:08;;;;;;;1999.90;999.90;;;10.40;99.90;;;;;;5017459;28;20049;-80
2024/03/12 03:28:33;;;;;;;1999.90;999.90;;;10.40;99.90;;;;;;5018391;28;20064;-80
2024/03/12 03:30:59;;;;;;;1999.90;999.90;;;10.40;99.90;;;;;;5024359;28;20487;-80
2024/03/12 03:33:26;;;;;;;1999.90;999.90;;;10.40;99.90;;;;;;5038665;28;20067;-80
2024/03/12 03:35:51;;;;;;;1999.90;999.90;;;10.40;99.90;;;;;;5038312;28;20033;-73
2024/03/12 03:38:19;;;;;;;1999.90;999.90;;;10.40;99.90;;;;;;5038662;28;20550;-73
2024/03/12 03:40:45;;;;;;;1999.90;999.90;;;10.50;99.90;;;;;;5033944;28;20025;-73
2024/03/12 03:43:11;;;;;;;1999.90;999.90;;;10.60;99.90;;;;;;5018860;28;20032;-81
2024/03/12 03:45:37;;;;;;;1999.90;999.90;;;10.60;99.90;;;;;;5018673;28;20030;-80
2024/03/12 03:48:03;;;;;;;1999.90;999.90;;;10.70;99.90;;;;;;5018781;28;20034;-80
2024/03/12 03:50:28;;;;;;;1999.90;999.90;;;10.60;99.90;;;;;;5018799;28;20068;-73
2024/03/12 03:52:54;;;;;;;1999.90;999.90;;;10.60;99.90;;;;;;5014599;28;20041;-81
2024/03/12 03:55:22;;;;;;;1999.90;999.90;;;10.60;99.90;;;;;;5015255;28;20080;-73
2024/03/12 03:57:52;;;;;;;1999.90;999.90;;;10.70;99.90;;;;;;5014696;28;20030;-80
2024/03/12 04:00:23;;;;;;;1999.90;999.90;;;10.70;99.90;;;;;;5015454;28;20092;-80
2024/03/12 04:02:49;;;;;;;1999.90;999.90;;;10.80;99.90;;;;;;5015298;28;20116;-73
2024/03/12 04:05:15;;;;;;;1999.90;999.90;;;10.80;99.90;;;;;;5015587;28;20030;-73
2024/03/12 04:07:43;;;;;;;1999.90;999.90;;;10.80;99.90;;;;;;5015130;28;20034;-73
2024/03/12 04:10:10;;;;;;;1999.90;999.90;;;10.80;99.90;;;;;;5015332;28;20026;-73
2024/03/12 04:12:42;;;;;;;1999.90;999.90;;;10.70;99.90;;;;;;5015309;28;20401;-80
2024/03/12 04:15:09;;;;;;;1999.90;999.90;;;10.70;99.90;;;;;;5030405;28;20061;-73
2024/03/12 04:17:37;;;;;;;1999.90;999.90;;;10.70;99.90;;;;;;5014937;28;20028;-73
2024/03/12 04:20:06;;;;;;;1999.90;999.90;;;10.60;99.90;;;;;;5014438;28;20052;-80
2024/03/12 04:22:32;;;;;;;1999.90;999.90;;;10.70;99.90;;;;;;5015147;28;20042;-80
2024/03/12 04:24:57;;;;;;;1999.90;999.90;;;10.80;99.90;;;;;;5015212;28;20161;-73
2024/03/12 04:27:23;;;;;;;1999.90;999.90;;;10.80;99.90;;;;;;5015023;28;20117;-81
2024/03/12 04:29:48;;;;;;;1999.90;999.90;;;10.90;99.90;;;;;;5013841;28;20034;-73
2024/03/12 04:32:15;;;;;;;1999.90;999.90;;;10.90;99.90;;;;;;5027119;28;20561;-73
2024/03/12 04:34:40;;;;;;;1999.90;999.90;;;10.90;99.90;;;;;;5034652;28;20395;-81
2024/03/12 04:37:07;;;;;;;1999.90;999.90;;;10.90;99.90;;;;;;5034510;28;20022;-80
2024/03/12 04:39:33;;;;;;;1999.90;999.90;;;10.90;99.90;;;;;;5034304;28;20075;-73
2024/03/12 04:42:05;;;;;;;1999.90;999.90;;;10.80;99.90;;;;;;5018380;28;20030;-73
2024/03/12 04:44:34;;;;;;;1999.90;999.90;;;10.90;99.90;;;;;;5014967;28;20408;-73
2024/03/12 04:47:00;;;;;;;1999.90;999.90;;;10.90;99.90;;;;;;5014883;28;20480;-81
2024/03/12 04:49:28;;;;;;;1999.90;999.90;;;10.90;99.90;;;;;;5014497;28;20030;-81
2024/03/12 04:51:55;;;;;;;1999.90;999.90;;;10.90;99.90;;;;;;5014499;28;20030;-80
2024/03/12 04:54:20;;;;;;;1999.90;999.90;;;10.90;99.90;;;;;;5014256;28;20097;-73
2024/03/12 04:56:46;;;;;;;1999.90;999.90;;;11.00;99.90;;;;;;5014391;28;20028;-73
2024/03/12 04:59:14;;;;;;;1999.90;999.90;;;11.00;99.90;;;;;;5014643;28;20084;-73
2024/03/12 05:01:41;;;;;;;1999.90;999.90;;;11.00;99.90;;;;;;5014086;28;20052;-81
2024/03/12 05:04:07;;;;;;;1999.90;999.90;;;11.00;99.90;;;;;;5014046;28;20507;-81
2024/03/12 05:06:33;;;;;;;1999.90;999.90;;;11.10;99.90;;;;;;5014400;28;20034;-73
2024/03/12 05:08:58;;;;;;;1999.90;999.90;;;11.10;99.90;;;;;;5014142;28;20022;-72
2024/03/12 05:11:24;;;;;;;1999.90;999.90;;;11.10;99.90;;;;;;5014402;28;20033;-73
2024/03/12 05:13:50;;;;;;;1999.90;999.90;;;11.20;99.90;;;;;;5013918;28;20104;-81
2024/03/12 05:16:15;;;;;;;1999.90;999.90;;;11.20;99.90;;;;;;5013998;28;20097;-80
2024/03/12 05:18:42;;;;;;;1999.90;999.90;;;11.20;99.90;;;;;;5012229;28;20064;-81
2024/03/12 05:21:07;;;;;;;1999.90;999.90;;;11.30;99.90;;;;;;5014022;28;20026;-73
2024/03/12 05:23:33;;;;;;;1999.90;999.90;;;11.30;99.90;;;;;;5013947;28;20397;-73
2024/03/12 05:25:59;;;;;;;1999.90;999.90;;;11.40;99.90;;;;;;5013839;28;20029;-73
2024/03/12 05:28:24;;;;;;;1999.90;999.90;;;11.60;99.90;;;;;;5013765;28;20034;-81
2024/03/12 05:30:51;;;;;;;1999.90;999.90;;;11.70;99.90;;;;;;5013864;28;20033;-81
2024/03/12 05:33:17;;;;;;;1999.90;999.90;;;11.80;99.90;;;;;;5031445;28;20435;-73
2024/03/12 05:35:51;;;;;;;1999.90;999.90;;;12.00;99.90;;;;;;5033295;28;20041;-73
2024/03/12 05:49:06;;;;;;;1999.90;999.90;;;12.70;99.90;;;;;;4993691;28;20045;-73
2024/03/12 05:51:34;;;;;;;1999.90;999.90;;;12.80;99.90;;;;;;4995872;28;20026;-81
2024/03/12 05:54:00;;;;;;;1999.90;999.90;;;12.80;99.90;;;;;;5013252;28;20550;-80
2024/03/12 05:56:26;;;;;;;1999.90;999.90;;;12.80;99.90;;;;;;5013336;28;20021;-81
2024/03/12 05:58:52;;;;;;;1999.90;999.90;;;12.80;99.90;;;;;;5013409;28;20025;-73
2024/03/12 06:01:17;;;;;;;1999.90;999.90;;;12.90;99.90;;;;;;5011869;28;20053;-73
2024/03/12 06:03:43;;;;;;;1999.90;999.90;;;13.00;99.90;;;;;;4993163;28;20496;-73
2024/03/12 06:06:09;;;;;;;1999.90;999.90;;;13.00;99.90;;;;;;4997337;28;20018;-81
2024/03/12 06:08:35;;;;;;;1999.90;999.90;;;13.00;99.90;;;;;;5031058;28;20033;-81
2024/03/12 06:11:01;;;;;;;1999.90;999.90;;;13.00;99.90;;;;;;5032881;28;20079;-81
2024/03/12 06:13:27;;;;;;;1999.90;999.90;;;13.00;99.90;;;;;;5047720;28;20060;-73
2024/03/12 06:15:53;;;;;;;1999.90;999.90;;;13.00;99.90;;;;;;5032005;28;20049;-73
2024/03/12 06:18:19;;;;;;;1999.90;999.90;;;13.10;99.90;;;;;;5017257;28;20571;-73
2024/03/12 06:20:49;;;;;;;1999.90;999.90;;;13.10;99.90;;;;;;5013307;28;20022;-81
2024/03/12 06:23:18;;;;;;;1999.90;999.90;;;13.20;99.90;;;;;;5012855;28;20026;-81
2024/03/12 06:25:44;;;;;;;1999.90;999.90;;;13.30;99.90;;;;;;5008008;28;20462;-73
2024/03/12 06:28:11;;;;;;;1999.90;999.90;;;13.40;99.90;;;;;;5012139;28;20030;-73
2024/03/12 06:30:40;;;;;;;1999.90;999.90;;;13.50;99.90;;;;;;5009810;28;20041;-81
2024/03/12 06:33:08;;;;;;;1999.90;999.90;;;13.40;99.90;;;;;;5011911;28;20041;-81
2024/03/12 06:35:35;;;;;;;1999.90;999.90;;;13.40;99.90;;;;;;5031590;28;20132;-81
2024/03/12 06:38:01;;;;;;;1999.90;999.90;;;13.40;99.90;;;;;;5031634;28;20029;-73
2024/03/12 06:40:27;;;;;;;1999.90;999.90;;;13.30;99.90;;;;;;5029889;28;20048;-81
2024/03/12 06:42:53;;;;;;;1999.90;999.90;;;13.30;99.90;;;;;;5002174;28;20030;-80
2024/03/12 06:45:18;;;;;;;1999.90;999.90;;;13.30;99.90;;;;;;5008173;28;20026;-81
2024/03/12 06:47:47;;;;;;;1999.90;999.90;;;13.20;99.90;;;;;;5010358;28;20117;-73
2024/03/12 06:50:14;;;;;;;1999.90;999.90;;;13.20;99.90;;;;;;5011707;28;20033;-73
2024/03/12 06:52:41;;;;;;;1999.90;999.90;;;13.30;99.90;;;;;;5012427;28;20038;-73
2024/03/12 06:55:12;;;;;;;1999.90;999.90;;;13.30;99.90;;;;;;5012199;28;20030;-73
2024/03/12 06:57:39;;;;;;;1999.90;999.90;;;13.40;99.90;;;;;;5010303;28;20161;-80
2024/03/12 07:00:09;;;;;;;1999.90;999.90;;;13.40;99.90;;;;;;5010244;28;20453;-74
2024/03/12 07:02:38;;;;;;;1999.90;999.90;;;13.50;99.90;;;;;;5012474;28;20408;-81
2024/03/12 07:05:07;;;;;;;1999.90;999.90;;;13.50;99.90;;;;;;5012106;28;20505;-73
2024/03/12 07:07:33;;;;;;;1999.90;999.90;;;13.50;99.90;;;;;;5012156;28;20096;-73
2024/03/12 07:10:03;;;;;;;1999.90;999.90;;;13.60;99.90;;;;;;5010371;28;20049;-79
2024/03/12 07:12:30;;;;;;;1999.90;999.90;;;13.60;99.90;;;;;;5010734;28;20022;-80
2024/03/12 07:14:56;;;;;;;1999.90;999.90;;;13.60;99.90;;;;;;5012126;28;20029;-71
2024/03/12 07:17:21;;;;;;;1999.90;999.90;;;13.60;99.90;;;;;;5012145;28;20524;-81
2024/03/12 07:19:47;;;;;;;1999.90;999.90;;;13.60;99.90;;;;;;5011547;28;20117;-72
2024/03/12 07:22:17;;;;;;;1999.90;999.90;;;13.60;99.90;;;;;;5011689;28;20105;-81
2024/03/12 07:24:43;;;;;;;1999.90;999.90;;;13.60;99.90;;;;;;5011931;28;20568;-81
2024/03/12 07:27:10;;;;;;;1999.90;999.90;;;13.70;99.90;;;;;;5012574;28;20069;-72
2024/03/12 07:29:36;;;;;;;1999.90;999.90;;;13.70;99.90;;;;;;5016825;28;20033;-81
2024/03/12 07:32:03;;;;;;;1999.90;999.90;;;13.80;99.90;;;;;;5015814;28;20033;-81
2024/03/12 07:34:29;;;;;;;1999.90;999.90;;;13.90;99.90;;;;;;5014751;28;20026;-81
2024/03/12 07:36:59;;;;;;;1999.90;999.90;;;14.10;99.90;;;;;;5001784;28;20026;-72
2024/03/12 07:39:31;;;;;;;1999.90;999.90;;;14.10;99.90;;;;;;5008449;28;20033;-81
2024/03/12 07:42:05;;;;;;;1999.90;999.90;;;14.10;99.90;;;;;;5012590;28;20033;-72
2024/03/12 07:44:32;;;;;;;1999.90;999.90;;;14.10;99.90;;;;;;5000538;28;20025;-72
2024/03/12 07:46:58;;;;;;;1999.90;999.90;;;13.90;99.90;;;;;;5015595;28;20041;-72
2024/03/12 07:49:24;;;;;;;1999.90;999.90;;;13.70;99.90;;;;;;5014442;28;20037;-80
2024/03/12 07:51:50;;;;;;;1999.90;999.90;;;13.50;99.90;;;;;;5009265;28;20030;-81
2024/03/12 07:54:19;;;;;;;1999.90;999.90;;;13.60;99.90;;;;;;5012523;28;20519;-73
2024/03/12 07:56:51;;;;;;;1999.90;999.90;;;14.00;99.90;;;;;;5014399;28;20029;-72
2024/03/12 07:59:22;;;;;;;1999.90;999.90;;;14.30;99.90;;;;;;5012701;28;20064;-72
2024/03/12 08:01:58;;;;;;;1999.90;999.90;;;13.80;99.90;;;;;;5008924;28;20536;-84
2024/03/12 08:04:27;;;;;;;1999.90;999.90;;;13.60;99.90;;;;;;5013132;28;20025;-83
2024/03/12 08:06:53;;;;;;;1999.90;999.90;;;13.30;99.90;;;;;;5013166;28;20069;-77
2024/03/12 08:09:19;;;;;;;1999.90;999.90;;;13.00;99.90;;;;;;5013386;28;20034;-72
2024/03/12 08:11:46;;;;;;;1999.90;999.90;;;12.70;99.90;;;;;;5012552;28;20386;-72
2024/03/12 08:14:13;;;;;;;1999.90;999.90;;;12.70;99.90;;;;;;5012117;28;20177;-72
2024/03/12 08:16:42;;;;;;;1999.90;999.90;;;12.70;99.90;;;;;;5003757;28;20065;-83
2024/03/12 08:19:10;;;;;;;1999.90;999.90;;;12.70;99.90;;;;;;5012490;28;20037;-83
2024/03/12 08:21:37;;;;;;;1999.90;999.90;;;12.90;99.90;;;;;;5013550;28;20105;-83
2024/03/12 08:24:03;;;;;;;1999.90;999.90;;;12.90;99.90;;;;;;5012783;28;20025;-74
2024/03/12 08:26:30;;;;;;;1999.90;999.90;;;12.90;99.90;;;;;;5011787;28;20040;-83
2024/03/12 08:28:57;;;;;;;1999.90;999.90;;;12.90;99.90;;;;;;5011520;28;20029;-84
2024/03/12 08:31:29;;;;;;;1999.90;999.90;;;12.90;99.90;;;;;;5013031;28;20033;-72
2024/03/12 08:33:55;;;;;;;1999.90;999.90;;;12.90;99.90;;;;;;5002056;28;20397;-83
2024/03/12 08:36:24;;;;;;;1999.90;999.90;;;13.00;99.90;;;;;;5011489;28;20030;-72
2024/03/12 08:38:50;;;;;;;1999.90;999.90;;;13.00;99.90;;;;;;5011704;28;20037;-81
2024/03/12 08:41:16;;;;;;;1999.90;999.90;;;13.00;99.90;;;;;;5012101;28;20030;-83
2024/03/12 08:43:42;;;;;;;1999.90;999.90;;;12.90;99.90;;;;;;5022499;28;20538;-82
2024/03/12 08:46:07;;;;;;;1999.90;999.90;;;12.80;99.90;;;;;;5031907;28;20104;-80
2024/03/12 08:48:34;;;;;;;1999.90;999.90;;;12.70;99.90;;;;;;5014010;28;20378;-73
2024/03/12 08:51:02;;;;;;;1999.90;999.90;;;12.70;99.90;;;;;;5011791;28;20030;-73
2024/03/12 08:53:33;;;;;;;1999.90;999.90;;;12.80;99.90;;;;;;5012636;28;20080;-81
2024/03/12 08:55:59;;;;;;;1999.90;999.90;;;12.80;99.90;;;;;;5011223;28;20049;-73
2024/03/12 08:58:25;;;;;;;1999.90;999.90;;;12.80;99.90;;;;;;5010790;28;20025;-73
2024/03/12 09:00:50;;;;;;;1999.90;999.90;;;12.90;99.90;;;;;;5011600;28;20448;-81
2024/03/12 09:03:17;;;;;;;1999.90;999.90;;;13.00;99.90;;;;;;5011612;28;20041;-72
2024/03/12 09:05:42;;;;;;;1999.90;999.90;;;13.10;99.90;;;;;;5011647;28;20401;-81
2024/03/12 09:08:09;;;;;;;1999.90;999.90;;;13.30;99.90;;;;;;5011945;28;20049;-83
2024/03/12 09:10:36;;;;;;;1999.90;999.90;;;13.90;99.90;;;;;;5010488;28;20045;-83
2024/03/12 09:13:03;;;;;;;1999.90;999.90;;;13.80;99.90;;;;;;5011605;28;20021;-82
2024/03/12 09:15:31;;;;;;;1999.90;999.90;;;13.90;99.90;;;;;;5011175;28;20156;-72
2024/03/12 09:18:06;;;;;;;1999.90;999.90;;;13.60;99.90;;;;;;5011391;28;20028;-81
2024/03/12 09:20:36;;;;;;;1999.90;999.90;;;13.40;99.90;;;;;;5012134;28;20493;-72
2024/03/12 09:23:02;;;;;;;1999.90;999.90;;;13.60;99.90;;;;;;5011878;28;20037;-79
2024/03/12 09:25:29;;;;;;;1999.90;999.90;;;13.50;99.90;;;;;;5011637;28;20088;-81
2024/03/12 09:27:55;;;;;;;1999.90;999.90;;;13.50;99.90;;;;;;5007811;28;20026;-74
2024/03/12 09:30:23;;;;;;;1999.90;999.90;;;13.50;99.90;;;;;;5010586;28;20087;-73
2024/03/12 09:32:50;;;;;;;1999.90;999.90;;;13.50;99.90;;;;;;5003924;28;20033;-81
2024/03/12 09:35:18;;;;;;;1999.90;999.90;;;13.60;99.90;;;;;;5007317;28;20404;-73
2024/03/12 09:37:44;;;;;;;1999.90;999.90;;;13.70;99.90;;;;;;4994911;28;20056;-82
2024/03/12 09:40:11;;;;;;;1999.90;999.90;;;13.80;99.90;;;;;;5009437;28;20105;-73
2024/03/12 09:42:37;;;;;;;1999.90;999.90;;;13.80;99.90;;;;;;5010679;28;20153;-74
2024/03/12 09:45:06;;;;;;;1999.90;999.90;;;14.00;99.90;;;;;;5008959;28;20030;-74
2024/03/12 09:47:33;;;;;;;1999.90;999.90;;;14.00;99.90;;;;;;5005227;28;20029;-75
2024/03/12 09:50:01;;;;;;;1999.90;999.90;;;13.80;99.90;;;;;;5010774;28;20038;-83
2024/03/12 09:52:28;;;;;;;1999.90;999.90;;;13.60;99.90;;;;;;5012084;28;20056;-83
2024/03/12 09:54:53;;;;;;;1999.90;999.90;;;13.60;99.90;;;;;;4982515;28;20033;-73
2024/03/12 09:57:22;;;;;;;1999.90;999.90;;;13.60;99.90;;;;;;4984774;28;20878;-73
2024/03/12 09:59:47;;;;;;;1999.90;999.90;;;13.50;99.90;;;;;;4986517;28;20045;-81
2024/03/12 10:02:14;;;;;;;1999.90;999.90;;;13.30;99.90;;;;;;4986537;28;20034;-83
2024/03/12 10:04:40;;;;;;;1999.90;999.90;;;13.30;99.90;;;;;;4999417;28;20919;-81
2024/03/12 10:07:06;;;;;;;1999.90;999.90;;;13.60;99.90;;;;;;4994769;28;20025;-72
2024/03/12 10:09:31;;;;;;;1999.90;999.90;;;13.70;99.90;;;;;;4998150;28;20730;-73
2024/03/12 10:12:04;;;;;;;1999.90;999.90;;;13.60;99.90;;;;;;4990696;28;20884;-73
2024/03/12 10:14:33;;;;;;;1999.90;999.90;;;13.80;99.90;;;;;;4978949;28;20754;-81
2024/03/12 10:17:13;;;;;;;1999.90;999.90;;;13.80;99.90;;;;;;4991305;28;21175;-81
2024/03/12 10:19:41;;;;;;;1999.90;999.90;;;13.80;99.90;;;;;;4992742;28;20147;-72
2024/03/12 10:22:11;;;;;;;1999.90;999.90;;;14.00;99.90;;;;;;5001740;28;20865;-72
2024/03/12 10:24:37;;;;;;;1999.90;999.90;;;14.10;99.90;;;;;;4993099;28;20043;-77
2024/03/12 10:27:06;;;;;;;1999.90;999.90;;;14.20;99.90;;;;;;4994097;28;20033;-72
2024/03/12 10:29:35;;;;;;;1999.90;999.90;;;14.30;99.90;;;;;;4989089;28;20036;-81
2024/03/12 10:32:19;;;;;;;1999.90;999.90;;;14.50;99.90;;;;;;5002119;28;20045;-81
2024/03/12 10:34:45;;;;;;;1999.90;999.90;;;14.60;99.90;;;;;;4982611;28;20589;-80
2024/03/12 10:37:34;;;;;;;1999.90;999.90;;;14.60;99.90;;;;;;4990453;28;20820;-79
2024/03/12 10:40:16;;;;;;;1999.90;999.90;;;14.40;99.90;;;;;;4980723;28;20036;-78
2024/03/12 10:42:52;;;;;;;1999.90;999.90;;;14.20;99.90;;;;;;4990015;28;20033;-73
2024/03/12 10:45:19;;;;;;;1999.90;999.90;;;14.00;99.90;;;;;;4994871;28;20594;-72
2024/03/12 10:47:47;;;;;;;1999.90;999.90;;;13.90;99.90;;;;;;4982466;28;20034;-79
2024/03/12 10:50:13;;;;;;;1999.90;999.90;;;13.60;99.90;;;;;;4989678;28;20032;-81
2024/03/12 10:52:39;;;;;;;1999.90;999.90;;;13.70;99.90;;;;;;4995194;28;20515;-82
2024/03/12 10:55:06;;;;;;;1999.90;999.90;;;13.70;99.90;;;;;;4985190;28;20136;-79
2024/03/12 10:57:33;;;;;;;1999.90;999.90;;;13.80;99.90;;;;;;4992484;28;20782;-72
2024/03/12 11:00:08;;;;;;;1999.90;999.90;;;14.00;99.90;;;;;;5001715;28;20119;-78
2024/03/12 11:02:36;;;;;;;1999.90;999.90;;;13.80;99.90;;;;;;4989358;28;20422;-78
2024/03/12 11:05:03;;;;;;;1999.90;999.90;;;13.90;99.90;;;;;;4996898;28;20057;-79
2024/03/12 11:07:31;;;;;;;1999.90;999.90;;;13.90;99.90;;;;;;5002610;28;20416;-77
2024/03/12 11:09:59;;;;;;;1999.90;999.90;;;13.90;99.90;;;;;;4985930;28;20419;-78
2024/03/12 11:12:25;;;;;;;1999.90;999.90;;;13.90;99.90;;;;;;4992543;28;20640;-71
2024/03/12 11:14:55;;;;;;;1999.90;999.90;;;14.00;99.90;;;;;;4998632;28;20037;-71
2024/03/12 11:17:28;;;;;;;1999.90;999.90;;;14.00;99.90;;;;;;4999365;28;20479;-80
2024/03/12 11:19:57;;;;;;;1999.90;999.90;;;14.10;99.90;;;;;;4995259;28;20479;-78
2024/03/12 11:22:23;;;;;;;1999.90;999.90;;;14.10;99.90;;;;;;5001099;28;20033;-81
2024/03/12 11:24:49;;;;;;;1999.90;999.90;;;14.40;99.90;;;;;;4999010;28;20033;-79
2024/03/12 11:27:27;;;;;;;1999.90;999.90;;;14.40;99.90;;;;;;4994315;28;20440;-71
2024/03/12 11:30:03;;;;;;;1999.90;999.90;;;14.30;99.90;;;;;;4998073;28;20364;-79
2024/03/12 11:32:34;;;;;;;1999.90;999.90;;;14.40;99.90;;;;;;4971296;28;20034;-80
2024/03/12 11:35:26;;;;;;;1999.90;999.90;;;14.50;99.90;;;;;;4993797;28;20113;-78
2024/03/12 11:38:00;;;;;;;1999.90;999.90;;;14.60;99.90;;;;;;4994386;28;20087;-72
2024/03/12 11:40:30;;;;;;;1999.90;999.90;;;14.50;99.90;;;;;;5000429;28;20507;-71
2024/03/12 11:42:56;;;;;;;1999.90;999.90;;;14.60;99.90;;;;;;4993368;28;20030;-71
2024/03/12 11:45:45;;;;;;;1999.90;999.90;;;14.50;99.90;;;;;;4996436;28;20139;-79
2024/03/12 11:48:21;;;;;;;1999.90;999.90;;;14.50;99.90;;;;;;4987583;28;20067;-79
2024/03/12 11:50:52;;;;;;;1999.90;999.90;;;14.50;99.90;;;;;;4991522;28;20970;-72
2024/03/12 11:53:22;;;;;;;1999.90;999.90;;;14.50;99.90;;;;;;4987864;28;20037;-71
2024/03/12 11:55:58;;;;;;;1999.90;999.90;;;14.50;99.90;;;;;;5008379;28;20038;-78
2024/03/12 11:58:38;;;;;;;1999.90;999.90;;;14.80;99.90;;;;;;5019972;28;20847;-70
2024/03/12 12:01:06;;;;;;;1999.90;999.90;;;14.80;99.90;;;;;;5035085;28;20049;-79
2024/03/12 12:03:36;;;;;;;1999.90;999.90;;;14.80;99.90;;;;;;5018726;28;20392;-71
2024/03/12 12:06:02;;;;;;;1999.90;999.90;;;14.60;99.90;;;;;;5026793;28;20079;-79
2024/03/12 12:08:30;;;;;;;1999.90;999.90;;;14.60;99.90;;;;;;5016846;28;20049;-71
2024/03/12 12:11:01;;;;;;;1999.90;999.90;;;14.40;99.90;;;;;;5008839;28;20072;-78
2024/03/12 12:13:27;;;;;;;1999.90;999.90;;;14.60;99.90;;;;;;5010209;28;20026;-76